Weather History for Robinson, IL

Change the Weather History Date:

Tuesday, March 19, 2013

  Actual Average (KLWV) Record (KLWV)
Temperature  
Mean Temperature 38 °F 46 °F  
Max Temperature 45 °F 57 °F 83 °F (2012)
Min Temperature 31 °F 35 °F 20 °F (1993)
Degree Days  
Heating Degree Days 27 19  
Month to date heating degree days 418  
Since 1 July heating degree days 4093  
Cooling Degree Days 0 0  
Month to date cooling degree days 0  
Year to date cooling degree days 0  
Moisture  
Dew Point 23 °F    
Average Humidity 59    
Maximum Humidity 77    
Minimum Humidity 37    
Precipitation  
Precipitation 0.00 in 0.12 in 1.75 in (1986)
Month to date precipitation 1.75  
Year to date precipitation 6.14  
Sea Level Pressure  
Sea Level Pressure 30.12 in    
Wind  
Wind Speed 13 mph (WSW)    
Max Wind Speed 23 mph    
Max Gust Speed 29 mph    
Visibility 10 miles    
Events      
T = Trace of Precipitation, MM = Missing Value Source: NWS Daily Summary

Daily Weather History Graph

Daily Weather History Graph

Search for Another Location

Airport:

Trip Planner

Search our weather history database for the weather conditions in past years. The results will help you decide how hot, cold, wet, or windy it might be!

Date:

Astronomy

Mar. 19, 2013 Rise Set
Actual Time 6:55 AM CDT 7:01 PM CDT
Civil Twilight 6:28 AM CDT 7:28 PM CDT
Nautical Twilight 5:57 AM CDT 7:59 PM CDT
Astronomical Twilight 5:25 AM CDT 8:31 PM CDT
Moon 11:47 AM CDT (3/19) 1:45 AM CDT (3/19)
Length of Visible Light 12h 59m
Length of Day
12h 06m
Waxing Crescent, 50% of the Moon is Illuminated
Mar 19
Waxing Crescent
Mar 19
First Quarter
Mar 27
Full
Apr 2
Last Quarter
Apr 10
New

Hourly Weather History & Observations

Time (CDT) Temp. Windchill Dew Point Humidity Pressure Visibility Wind Dir Wind Speed Gust Speed Precip Events Conditions
12:15 AM 35.6 °F 26.6 °F 27.5 °F 72% 29.97 in 10.0 mi WNW 13.8 mph 19.6 mph N/A   Clear
12:35 AM 34.7 °F 25.5 °F 27.1 °F 74% 29.98 in 10.0 mi WNW 13.8 mph 18.4 mph N/A   Clear
12:55 AM 34.2 °F 26.8 °F 27.5 °F 77% 29.98 in 10.0 mi WNW 9.2 mph - N/A   Clear
1:15 AM 33.4 °F 24.8 °F 27.0 °F 77% 30.00 in 10.0 mi WNW 11.5 mph - N/A   Clear
1:55 AM 32.9 °F 23.2 °F 25.3 °F 74% 30.02 in 10.0 mi West 13.8 mph 19.6 mph N/A   Clear
2:15 AM 32.4 °F 24.0 °F 24.1 °F 72% 30.01 in 10.0 mi WNW 10.4 mph - N/A   Clear
2:35 AM 32.0 °F 23.6 °F 24.3 °F 73% 30.01 in 10.0 mi West 10.4 mph - N/A   Clear
2:55 AM 31.8 °F 23.9 °F 24.4 °F 74% 30.01 in 10.0 mi West 9.2 mph - N/A   Clear
3:15 AM 31.1 °F 25.4 °F 24.8 °F 77% 30.02 in 10.0 mi West 5.8 mph - N/A   Clear
3:55 AM 31.3 °F 22.7 °F 24.3 °F 75% 30.04 in 10.0 mi WSW 10.4 mph - N/A   Clear
4:15 AM 31.6 °F 23.7 °F 23.7 °F 73% 30.04 in 10.0 mi WSW 9.2 mph - N/A   Clear
4:55 AM 31.3 °F 23.3 °F 21.4 °F 67% 30.03 in 10.0 mi WSW 9.2 mph - N/A   Clear
5:15 AM 31.3 °F 23.3 °F 21.0 °F 66% 30.03 in 10.0 mi SW 9.2 mph - N/A   Clear
5:35 AM 31.1 °F 22.4 °F 20.8 °F 66% 30.04 in 10.0 mi SW 10.4 mph 16.1 mph N/A   Clear
5:55 AM 31.8 °F 23.3 °F 21.2 °F 65% 30.05 in 10.0 mi WSW 10.4 mph - N/A   Clear
6:15 AM 31.8 °F 21.8 °F 21.2 °F 65% 30.05 in 10.0 mi SW 13.8 mph 19.6 mph N/A   Clear
6:35 AM 31.3 °F 21.6 °F 21.4 °F 67% 30.06 in 10.0 mi WSW 12.7 mph - N/A   Clear
6:55 AM 31.1 °F 21.4 °F 21.0 °F 66% 30.06 in 10.0 mi WSW 12.7 mph - N/A   Clear
7:15 AM 31.5 °F 21.8 °F 21.4 °F 66% 30.07 in 10.0 mi WSW 12.7 mph 19.6 mph N/A   Clear
7:35 AM 31.8 °F 22.3 °F 21.4 °F 65% 30.07 in 10.0 mi WSW 12.7 mph - N/A   Clear
7:55 AM 32.2 °F 23.2 °F 20.8 °F 63% 30.08 in 10.0 mi WSW 11.5 mph - N/A   Clear
8:15 AM 32.5 °F 21.9 °F 21.4 °F 64% 30.09 in 10.0 mi West 16.1 mph 20.7 mph N/A   Clear
8:35 AM 32.9 °F 22.0 °F 21.0 °F 62% 30.10 in 10.0 mi West 17.3 mph 25.3 mph N/A   Clear
8:55 AM 33.3 °F 22.5 °F 20.8 °F 60% 30.09 in 10.0 mi West 17.3 mph 26.5 mph N/A   Clear
9:15 AM 33.8 °F 22.8 °F 20.5 °F 58% 30.11 in 10.0 mi West 18.4 mph 28.8 mph N/A   Clear
9:35 AM 33.8 °F 22.8 °F 19.9 °F 57% 30.12 in 10.0 mi West 18.4 mph 26.5 mph N/A   Clear
9:55 AM 34.3 °F 24.6 °F 21.0 °F 58% 30.12 in 10.0 mi West 15.0 mph - N/A   Clear
10:15 AM 34.9 °F 23.9 °F 21.0 °F 57% 30.14 in 10.0 mi WSW 19.6 mph 26.5 mph N/A   Clear
10:35 AM 35.6 °F 25.2 °F 21.2 °F 56% 30.14 in 10.0 mi West 18.4 mph 25.3 mph N/A   Clear
10:55 AM 36.5 °F 25.7 °F 21.9 °F 56% 30.16 in 10.0 mi West 20.7 mph 28.8 mph N/A   Clear
11:15 AM 37.0 °F 27.0 °F 23.5 °F 58% 30.16 in 10.0 mi WSW 18.4 mph 24.2 mph N/A   Clear
11:35 AM 37.6 °F 26.6 °F 22.6 °F 55% 30.17 in 10.0 mi WSW 23.0 mph 26.5 mph N/A   Clear
11:55 AM 38.7 °F 29.1 °F 23.7 °F 55% 30.17 in 10.0 mi WSW 18.4 mph 23.0 mph N/A   Clear
12:15 PM 39.4 °F 29.8 °F 22.8 °F 52% 30.17 in 10.0 mi West 19.6 mph 26.5 mph N/A   Clear
12:35 PM 40.3 °F 31.3 °F 24.4 °F 53% 30.17 in 10.0 mi WSW 18.4 mph 25.3 mph N/A   Clear
12:55 PM 41.0 °F 31.4 °F 24.8 °F 53% 30.18 in 10.0 mi WSW 21.9 mph 26.5 mph N/A   Clear
1:15 PM 41.7 °F 33.4 °F 25.0 °F 52% 30.19 in 10.0 mi West 17.3 mph 25.3 mph N/A   Clear
1:55 PM 43.0 °F 34.2 °F 23.7 °F 47% 30.18 in 10.0 mi West 20.7 mph 26.5 mph N/A   Clear
2:15 PM 43.2 °F 36.2 °F 25.5 °F 50% 30.18 in 10.0 mi West 13.8 mph 23.0 mph N/A   Clear
2:35 PM 43.9 °F 35.9 °F 21.9 °F 42% 30.17 in 10.0 mi West 18.4 mph 25.3 mph N/A   Clear
2:55 PM 43.9 °F 37.2 °F 21.0 °F 40% 30.17 in 10.0 mi West 13.8 mph 24.2 mph N/A   Clear
3:15 PM 44.4 °F 36.6 °F 19.2 °F 37% 30.17 in 10.0 mi West 18.4 mph 21.9 mph N/A   Clear
3:35 PM 45.1 °F 37.1 °F 22.8 °F 41% 30.16 in 10.0 mi West 20.7 mph 26.5 mph N/A   Clear
3:55 PM 45.0 °F 37.6 °F 21.4 °F 39% 30.16 in 10.0 mi West 17.3 mph 23.0 mph N/A   Clear
4:15 PM 45.5 °F 39.6 °F 22.6 °F 41% 30.16 in 10.0 mi West 12.7 mph 19.6 mph N/A   Clear
4:35 PM 45.0 °F 38.5 °F 20.3 °F 38% 30.17 in 10.0 mi West 13.8 mph 18.4 mph N/A   Clear
4:55 PM 44.8 °F 38.0 °F 20.1 °F 37% 30.18 in 10.0 mi West 15.0 mph 21.9 mph N/A   Clear
5:15 PM 44.4 °F 37.5 °F 21.7 °F 41% 30.18 in 10.0 mi West 15.0 mph - N/A   Clear
5:35 PM 43.7 °F 37.3 °F 20.3 °F 39% 30.18 in 10.0 mi West 12.7 mph - N/A   Clear
5:55 PM 43.7 °F 37.3 °F 22.5 °F 43% 30.18 in 10.0 mi WSW 12.7 mph - N/A   Clear
6:15 PM 42.8 °F 37.5 °F 22.6 °F 45% 30.18 in 10.0 mi West 9.2 mph - N/A   Clear
6:35 PM 42.1 °F 36.1 °F 20.8 °F 43% 30.18 in 10.0 mi West 10.4 mph - N/A   Clear
6:55 PM 40.5 °F 35.8 °F 22.3 °F 48% 30.18 in 10.0 mi West 6.9 mph - N/A   Clear
7:15 PM 38.7 °F 33.6 °F 22.6 °F 53% 30.19 in 10.0 mi West 6.9 mph - N/A   Clear
7:35 PM 37.4 °F 31.4 °F 23.4 °F 57% 30.19 in 10.0 mi WSW 8.1 mph - N/A   Clear
7:55 PM 37.6 °F 32.3 °F 24.4 °F 59% 30.19 in 10.0 mi WSW 6.9 mph - N/A   Clear
8:15 PM 36.5 °F 31.0 °F 24.8 °F 63% 30.19 in 10.0 mi WSW 6.9 mph - N/A   Clear
8:35 PM 36.0 °F 30.3 °F 24.1 °F 62% 30.19 in 10.0 mi WSW 6.9 mph - N/A   Clear
8:55 PM 35.6 °F 29.9 °F 23.9 °F 62% 30.19 in 10.0 mi WSW 6.9 mph - N/A   Clear
9:15 PM 34.9 °F 28.3 °F 23.9 °F 64% 30.19 in 10.0 mi WSW 8.1 mph - N/A   Clear
9:55 PM 34.9 °F 29.9 °F 23.4 °F 63% 30.18 in 10.0 mi SW 5.8 mph - N/A   Clear
10:15 PM 33.4 °F 27.3 °F 23.5 °F 67% 30.18 in 10.0 mi SSW 6.9 mph - N/A   Clear
10:35 PM 33.4 °F 27.3 °F 24.1 °F 69% 30.18 in 10.0 mi SSW 6.9 mph - N/A   Clear
10:55 PM 32.0 °F 26.4 °F 23.9 °F 72% 30.18 in 10.0 mi SW 5.8 mph - N/A   Clear
11:15 PM 34.2 °F 28.2 °F 23.0 °F 64% 30.17 in 10.0 mi WSW 6.9 mph - N/A   Clear
11:55 PM 31.8 °F - 22.5 °F 68% 30.17 in 10.0 mi Calm Calm - N/A   Clear